sensor_id;sensor_type;location;lat;lon;timestamp;pressure;altitude;pressure_sealevel;temperature;humidity
28267;BME280;15525;45.568;5.448;2023-04-07T00:02:22;98153.59;;;11.51;46.65
28267;BME280;15525;45.568;5.448;2023-04-07T00:04:48;98137.81;;;11.30;46.53
28267;BME280;15525;45.568;5.448;2023-04-07T00:07:13;98150.41;;;11.44;46.91
28267;BME280;15525;45.568;5.448;2023-04-07T00:09:39;98152.00;;;11.45;46.64
28267;BME280;15525;45.568;5.448;2023-04-07T00:12:04;98144.78;;;11.46;46.21
28267;BME280;15525;45.568;5.448;2023-04-07T00:14:29;98133.78;;;11.37;46.21
28267;BME280;15525;45.568;5.448;2023-04-07T00:16:55;98129.28;;;11.28;46.51
28267;BME280;15525;45.568;5.448;2023-04-07T00:19:21;98082.97;;;11.07;46.44
28267;BME280;15525;45.568;5.448;2023-04-07T00:21:46;98134.63;;;11.33;46.41
28267;BME280;15525;45.568;5.448;2023-04-07T00:24:11;98121.50;;;11.21;46.70
28267;BME280;15525;45.568;5.448;2023-04-07T00:26:37;98121.25;;;11.23;46.27
28267;BME280;15525;45.568;5.448;2023-04-07T00:29:02;98122.84;;;11.19;46.35
28267;BME280;15525;45.568;5.448;2023-04-07T00:31:28;98086.47;;;10.93;46.48
28267;BME280;15525;45.568;5.448;2023-04-07T00:33:53;98123.13;;;11.17;46.40
28267;BME280;15525;45.568;5.448;2023-04-07T00:36:20;98119.13;;;11.00;46.57
28267;BME280;15525;45.568;5.448;2023-04-07T00:38:45;98111.09;;;10.90;46.75
28267;BME280;15525;45.568;5.448;2023-04-07T00:41:11;98128.78;;;10.96;47.25
28267;BME280;15525;45.568;5.448;2023-04-07T00:43:36;98123.94;;;10.98;47.02
28267;BME280;15525;45.568;5.448;2023-04-07T00:46:02;98110.03;;;10.96;47.26
28267;BME280;15525;45.568;5.448;2023-04-07T00:48:27;98094.50;;;10.83;47.10
28267;BME280;15525;45.568;5.448;2023-04-07T00:50:53;98101.97;;;10.86;46.71
28267;BME280;15525;45.568;5.448;2023-04-07T00:53:18;98083.53;;;10.84;46.87
28267;BME280;15525;45.568;5.448;2023-04-07T00:55:44;98089.97;;;10.88;47.02
28267;BME280;15525;45.568;5.448;2023-04-07T00:58:10;98099.59;;;10.89;46.69
28267;BME280;15525;45.568;5.448;2023-04-07T01:01:01;98057.06;;;10.68;47.46
28267;BME280;15525;45.568;5.448;2023-04-07T01:03:49;98061.06;;;10.50;48.63
28267;BME280;15525;45.568;5.448;2023-04-07T01:06:17;98088.09;;;10.69;47.39
28267;BME280;15525;45.568;5.448;2023-04-07T01:08:57;98066.69;;;10.64;48.42
28267;BME280;15525;45.568;5.448;2023-04-07T01:11:41;98086.47;;;10.53;48.37
28267;BME280;15525;45.568;5.448;2023-04-07T01:14:10;98084.63;;;10.43;47.86
28267;BME280;15525;45.568;5.448;2023-04-07T01:16:47;98087.56;;;10.57;47.50
28267;BME280;15525;45.568;5.448;2023-04-07T01:21:51;98070.66;;;10.86;46.97
28267;BME280;15525;45.568;5.448;2023-04-07T01:27:20;98083.25;;;11.01;47.05
28267;BME280;15525;45.568;5.448;2023-04-07T01:29:48;98072.25;;;10.97;46.36
28267;BME280;15525;45.568;5.448;2023-04-07T01:32:17;98090.13;;;11.27;45.98
28267;BME280;15525;45.568;5.448;2023-04-07T01:34:47;98062.81;;;11.30;46.18
28267;BME280;15525;45.568;5.448;2023-04-07T01:37:13;98043.00;;;11.21;46.55
28267;BME280;15525;45.568;5.448;2023-04-07T01:39:40;98060.66;;;11.37;46.22
28267;BME280;15525;45.568;5.448;2023-04-07T01:42:06;98072.38;;;11.51;46.30
28267;BME280;15525;45.568;5.448;2023-04-07T01:44:33;98047.25;;;11.37;46.26
28267;BME280;15525;45.568;5.448;2023-04-07T01:46:59;98023.13;;;11.37;46.12
28267;BME280;15525;45.568;5.448;2023-04-07T01:49:25;98035.38;;;11.53;45.84
28267;BME280;15525;45.568;5.448;2023-04-07T01:51:52;98053.84;;;11.64;46.06
28267;BME280;15525;45.568;5.448;2023-04-07T01:54:19;98052.31;;;11.48;46.00
28267;BME280;15525;45.568;5.448;2023-04-07T01:56:45;98050.13;;;11.50;46.81
28267;BME280;15525;45.568;5.448;2023-04-07T01:59:10;98054.94;;;11.63;46.62
28267;BME280;15525;45.568;5.448;2023-04-07T02:01:36;98043.94;;;11.65;46.35
28267;BME280;15525;45.568;5.448;2023-04-07T02:06:58;98013.09;;;11.68;45.73
28267;BME280;15525;45.568;5.448;2023-04-07T02:09:27;98040.09;;;11.81;46.18
28267;BME280;15525;45.568;5.448;2023-04-07T02:11:57;98036.97;;;11.69;46.58
28267;BME280;15525;45.568;5.448;2023-04-07T02:14:24;98017.75;;;11.42;46.68
28267;BME280;15525;45.568;5.448;2023-04-07T02:16:51;98034.56;;;11.57;46.49
28267;BME280;15525;45.568;5.448;2023-04-07T02:19:18;98038.59;;;11.60;46.74
28267;BME280;15525;45.568;5.448;2023-04-07T02:21:45;98024.66;;;11.53;46.71
28267;BME280;15525;45.568;5.448;2023-04-07T02:24:12;98023.84;;;11.57;46.72
28267;BME280;15525;45.568;5.448;2023-04-07T02:26:38;98003.28;;;11.38;46.42
28267;BME280;15525;45.568;5.448;2023-04-07T02:29:03;98020.47;;;11.32;47.22
28267;BME280;15525;45.568;5.448;2023-04-07T02:31:29;98019.41;;;11.28;47.27
28267;BME280;15525;45.568;5.448;2023-04-07T02:33:54;97986.25;;;11.09;46.96
28267;BME280;15525;45.568;5.448;2023-04-07T02:36:20;97996.38;;;11.22;47.12
28267;BME280;15525;45.568;5.448;2023-04-07T02:38:45;98024.72;;;11.38;47.29
28267;BME280;15525;45.568;5.448;2023-04-07T02:41:11;98019.63;;;11.41;47.02
28267;BME280;15525;45.568;5.448;2023-04-07T02:43:36;98024.41;;;11.49;46.42
28267;BME280;15525;45.568;5.448;2023-04-07T02:46:02;97981.84;;;11.38;46.89
28267;BME280;15525;45.568;5.448;2023-04-07T02:48:27;97996.59;;;11.40;46.80
28267;BME280;15525;45.568;5.448;2023-04-07T02:50:52;97991.00;;;11.27;46.98
28267;BME280;15525;45.568;5.448;2023-04-07T02:53:18;98014.56;;;11.35;47.06
28267;BME280;15525;45.568;5.448;2023-04-07T02:55:43;97995.56;;;11.26;46.97
28267;BME280;15525;45.568;5.448;2023-04-07T02:58:09;97971.50;;;11.21;47.19
28267;BME280;15525;45.568;5.448;2023-04-07T03:00:34;97972.72;;;11.39;47.30
28267;BME280;15525;45.568;5.448;2023-04-07T03:03:00;97989.28;;;11.61;46.69
28267;BME280;15525;45.568;5.448;2023-04-07T03:05:25;97978.75;;;11.69;46.62
28267;BME280;15525;45.568;5.448;2023-04-07T03:07:51;97954.69;;;11.54;46.63
28267;BME280;15525;45.568;5.448;2023-04-07T03:10:16;97964.59;;;11.64;46.50
28267;BME280;15525;45.568;5.448;2023-04-07T03:12:42;97951.78;;;11.51;47.18
28267;BME280;15525;45.568;5.448;2023-04-07T03:15:08;97967.81;;;11.61;46.89
28267;BME280;15525;45.568;5.448;2023-04-07T03:17:33;97990.25;;;11.75;47.11
28267;BME280;15525;45.568;5.448;2023-04-07T03:19:59;97955.53;;;11.45;47.37
28267;BME280;15525;45.568;5.448;2023-04-07T03:22:25;97993.78;;;11.65;47.31
28267;BME280;15525;45.568;5.448;2023-04-07T03:24:50;97956.53;;;11.59;47.14
28267;BME280;15525;45.568;5.448;2023-04-07T03:27:16;97961.84;;;11.74;46.87
28267;BME280;15525;45.568;5.448;2023-04-07T03:29:41;97974.63;;;11.87;46.85
28267;BME280;15525;45.568;5.448;2023-04-07T03:32:07;97964.19;;;11.86;46.59
28267;BME280;15525;45.568;5.448;2023-04-07T03:34:33;97953.19;;;11.87;46.94
28267;BME280;15525;45.568;5.448;2023-04-07T03:36:58;97946.22;;;11.81;46.78
28267;BME280;15525;45.568;5.448;2023-04-07T03:39:24;97968.16;;;11.93;46.93
28267;BME280;15525;45.568;5.448;2023-04-07T03:41:49;97973.72;;;12.02;46.72
28267;BME280;15525;45.568;5.448;2023-04-07T03:44:15;97967.56;;;12.01;46.99
28267;BME280;15525;45.568;5.448;2023-04-07T03:46:41;97956.63;;;11.93;46.99
28267;BME280;15525;45.568;5.448;2023-04-07T03:49:06;97945.66;;;11.89;47.29
28267;BME280;15525;45.568;5.448;2023-04-07T03:51:32;97954.38;;;12.05;46.81
28267;BME280;15525;45.568;5.448;2023-04-07T03:53:58;97957.66;;;11.97;47.29
28267;BME280;15525;45.568;5.448;2023-04-07T03:56:23;97954.94;;;12.02;46.82
28267;BME280;15525;45.568;5.448;2023-04-07T03:58:49;97946.19;;;11.86;47.17
28267;BME280;15525;45.568;5.448;2023-04-07T04:01:15;97938.22;;;11.76;47.25
28267;BME280;15525;45.568;5.448;2023-04-07T04:03:41;97957.22;;;11.79;47.15
28267;BME280;15525;45.568;5.448;2023-04-07T04:06:06;97953.22;;;11.77;47.42
28267;BME280;15525;45.568;5.448;2023-04-07T04:08:32;97939.19;;;11.46;47.83
28267;BME280;15525;45.568;5.448;2023-04-07T04:10:57;97953.81;;;11.74;46.94
28267;BME280;15525;45.568;5.448;2023-04-07T04:13:23;97960.66;;;11.90;47.33
28267;BME280;15525;45.568;5.448;2023-04-07T04:15:48;97967.59;;;11.96;46.74
28267;BME280;15525;45.568;5.448;2023-04-07T04:18:13;97935.59;;;11.71;47.05
28267;BME280;15525;45.568;5.448;2023-04-07T04:20:39;97958.56;;;11.82;46.98
28267;BME280;15525;45.568;5.448;2023-04-07T04:23:04;97963.88;;;11.92;46.73
28267;BME280;15525;45.568;5.448;2023-04-07T04:25:30;97955.78;;;11.97;46.81
28267;BME280;15525;45.568;5.448;2023-04-07T04:27:55;97944.69;;;12.09;46.33
28267;BME280;15525;45.568;5.448;2023-04-07T04:30:21;97932.38;;;12.08;46.30
28267;BME280;15525;45.568;5.448;2023-04-07T04:32:46;97916.81;;;12.05;46.32
28267;BME280;15525;45.568;5.448;2023-04-07T04:35:12;97962.47;;;12.33;46.56
28267;BME280;15525;45.568;5.448;2023-04-07T04:37:37;97961.66;;;12.33;46.53
28267;BME280;15525;45.568;5.448;2023-04-07T04:40:03;97938.44;;;12.18;46.85
28267;BME280;15525;45.568;5.448;2023-04-07T04:42:32;97930.38;;;12.18;46.62
28267;BME280;15525;45.568;5.448;2023-04-07T04:44:58;97953.09;;;12.31;46.70
28267;BME280;15525;45.568;5.448;2023-04-07T04:47:23;97957.59;;;12.35;47.31
28267;BME280;15525;45.568;5.448;2023-04-07T04:49:48;97959.75;;;12.38;47.32
28267;BME280;15525;45.568;5.448;2023-04-07T04:52:14;97946.88;;;12.35;46.93
28267;BME280;15525;45.568;5.448;2023-04-07T04:54:39;97936.75;;;12.27;47.08
28267;BME280;15525;45.568;5.448;2023-04-07T04:57:05;97966.38;;;12.46;46.87
28267;BME280;15525;45.568;5.448;2023-04-07T04:59:30;97971.97;;;12.49;46.96
28267;BME280;15525;45.568;5.448;2023-04-07T05:01:55;97950.66;;;12.34;46.97
28267;BME280;15525;45.568;5.448;2023-04-07T05:04:21;97967.50;;;12.40;47.22
28267;BME280;15525;45.568;5.448;2023-04-07T05:06:46;97968.56;;;12.39;47.08
28267;BME280;15525;45.568;5.448;2023-04-07T05:09:12;97940.06;;;12.19;47.48
28267;BME280;15525;45.568;5.448;2023-04-07T05:11:37;97942.09;;;12.27;47.14
28267;BME280;15525;45.568;5.448;2023-04-07T05:14:04;97938.38;;;12.28;47.39
28267;BME280;15525;45.568;5.448;2023-04-07T05:16:30;97958.38;;;12.41;47.22
28267;BME280;15525;45.568;5.448;2023-04-07T05:18:55;97926.09;;;12.17;47.71
28267;BME280;15525;45.568;5.448;2023-04-07T05:21:21;97949.59;;;12.30;47.39
28267;BME280;15525;45.568;5.448;2023-04-07T05:23:46;97970.38;;;12.48;47.43
28267;BME280;15525;45.568;5.448;2023-04-07T05:26:11;97933.00;;;12.28;47.34
28267;BME280;15525;45.568;5.448;2023-04-07T05:28:37;97951.63;;;12.43;47.19
28267;BME280;15525;45.568;5.448;2023-04-07T05:31:02;97945.50;;;12.38;47.42
28267;BME280;15525;45.568;5.448;2023-04-07T05:33:28;97962.78;;;12.27;47.47
28267;BME280;15525;45.568;5.448;2023-04-07T05:35:53;97967.84;;;12.33;47.58
28267;BME280;15525;45.568;5.448;2023-04-07T05:38:18;97972.63;;;12.36;47.73
28267;BME280;15525;45.568;5.448;2023-04-07T05:40:45;97969.84;;;12.46;47.50
28267;BME280;15525;45.568;5.448;2023-04-07T05:43:11;97944.41;;;12.39;47.66
28267;BME280;15525;45.568;5.448;2023-04-07T05:45:36;97920.63;;;12.27;47.87
28267;BME280;15525;45.568;5.448;2023-04-07T05:48:02;97966.75;;;12.63;47.32
28267;BME280;15525;45.568;5.448;2023-04-07T05:50:27;97974.00;;;12.62;47.33
28267;BME280;15525;45.568;5.448;2023-04-07T05:52:53;97963.09;;;12.54;47.09
28267;BME280;15525;45.568;5.448;2023-04-07T05:55:18;97959.47;;;12.40;47.45
28267;BME280;15525;45.568;5.448;2023-04-07T05:57:44;97976.97;;;12.61;46.93
28267;BME280;15525;45.568;5.448;2023-04-07T06:00:10;97949.19;;;12.47;47.58
28267;BME280;15525;45.568;5.448;2023-04-07T06:02:35;97989.72;;;12.74;47.33
28267;BME280;15525;45.568;5.448;2023-04-07T06:05:01;97970.75;;;12.65;47.61
28267;BME280;15525;45.568;5.448;2023-04-07T06:07:26;97973.44;;;12.65;47.06
28267;BME280;15525;45.568;5.448;2023-04-07T06:09:52;97955.38;;;12.47;47.22
28267;BME280;15525;45.568;5.448;2023-04-07T06:12:17;98005.94;;;12.64;47.37
28267;BME280;15525;45.568;5.448;2023-04-07T06:14:49;98012.81;;;12.75;48.21
28267;BME280;15525;45.568;5.448;2023-04-07T06:17:15;98008.25;;;12.75;47.59
28267;BME280;15525;45.568;5.448;2023-04-07T06:19:41;98037.19;;;12.83;47.63
28267;BME280;15525;45.568;5.448;2023-04-07T06:22:06;98013.47;;;12.62;47.71
28267;BME280;15525;45.568;5.448;2023-04-07T06:24:32;98029.28;;;12.63;47.94
28267;BME280;15525;45.568;5.448;2023-04-07T06:26:57;98039.88;;;12.78;47.95
28267;BME280;15525;45.568;5.448;2023-04-07T06:29:25;98005.72;;;12.60;48.34
28267;BME280;15525;45.568;5.448;2023-04-07T06:31:51;98027.56;;;12.77;48.99
28267;BME280;15525;45.568;5.448;2023-04-07T06:34:16;98051.34;;;12.89;49.30
28267;BME280;15525;45.568;5.448;2023-04-07T06:36:42;98028.41;;;12.73;49.00
28267;BME280;15525;45.568;5.448;2023-04-07T06:39:07;98038.19;;;12.87;49.33
28267;BME280;15525;45.568;5.448;2023-04-07T06:41:33;98061.13;;;13.08;48.85
28267;BME280;15525;45.568;5.448;2023-04-07T06:43:58;98043.47;;;13.02;48.79
28267;BME280;15525;45.568;5.448;2023-04-07T06:46:24;98081.34;;;13.29;48.66
28267;BME280;15525;45.568;5.448;2023-04-07T06:48:51;98077.03;;;13.05;49.63
28267;BME280;15525;45.568;5.448;2023-04-07T06:51:16;98076.22;;;13.04;49.27
28267;BME280;15525;45.568;5.448;2023-04-07T06:53:42;98065.47;;;13.04;49.46
28267;BME280;15525;45.568;5.448;2023-04-07T06:56:11;98069.75;;;13.05;49.54
28267;BME280;15525;45.568;5.448;2023-04-07T06:58:37;98091.50;;;13.32;49.54
28267;BME280;15525;45.568;5.448;2023-04-07T07:01:03;98072.47;;;13.29;49.70
28267;BME280;15525;45.568;5.448;2023-04-07T07:03:29;98078.91;;;13.56;49.24
28267;BME280;15525;45.568;5.448;2023-04-07T07:05:59;98101.75;;;13.77;49.29
28267;BME280;15525;45.568;5.448;2023-04-07T07:08:26;98100.97;;;13.77;49.12
28267;BME280;15525;45.568;5.448;2023-04-07T07:10:52;98100.91;;;13.82;49.12
28267;BME280;15525;45.568;5.448;2023-04-07T07:13:19;98096.91;;;13.79;49.35
28267;BME280;15525;45.568;5.448;2023-04-07T07:15:45;98079.28;;;13.68;49.12
28267;BME280;15525;45.568;5.448;2023-04-07T07:18:11;98101.53;;;13.74;49.76
28267;BME280;15525;45.568;5.448;2023-04-07T07:20:37;98077.81;;;13.57;50.20
28267;BME280;15525;45.568;5.448;2023-04-07T07:23:02;98108.69;;;13.60;50.47
28267;BME280;15525;45.568;5.448;2023-04-07T07:25:28;98118.09;;;13.62;50.82
28267;BME280;15525;45.568;5.448;2023-04-07T07:27:54;98119.63;;;13.68;50.57
28267;BME280;15525;45.568;5.448;2023-04-07T07:30:20;98108.91;;;13.63;50.67
28267;BME280;15525;45.568;5.448;2023-04-07T07:32:46;98121.16;;;13.74;50.83
28267;BME280;15525;45.568;5.448;2023-04-07T07:35:12;98099.47;;;13.66;50.80
28267;BME280;15525;45.568;5.448;2023-04-07T07:37:37;98100.16;;;13.76;50.91
28267;BME280;15525;45.568;5.448;2023-04-07T07:40:03;98118.22;;;13.94;50.38
28267;BME280;15525;45.568;5.448;2023-04-07T07:42:29;98129.00;;;13.94;50.59
28267;BME280;15525;45.568;5.448;2023-04-07T07:44:55;98104.97;;;13.79;50.66
28267;BME280;15525;45.568;5.448;2023-04-07T07:47:21;98129.22;;;13.98;50.62
28267;BME280;15525;45.568;5.448;2023-04-07T07:49:47;98089.25;;;13.86;50.44
28267;BME280;15525;45.568;5.448;2023-04-07T07:52:13;98122.44;;;14.24;50.24
28267;BME280;15525;45.568;5.448;2023-04-07T07:54:38;98123.75;;;14.26;50.57
28267;BME280;15525;45.568;5.448;2023-04-07T07:57:03;98102.22;;;14.03;50.74
28267;BME280;15525;45.568;5.448;2023-04-07T07:59:30;98130.81;;;14.22;50.36
28267;BME280;15525;45.568;5.448;2023-04-07T08:01:56;98107.53;;;14.08;50.44
28267;BME280;15525;45.568;5.448;2023-04-07T08:04:22;98129.72;;;14.23;50.65
28267;BME280;15525;45.568;5.448;2023-04-07T08:06:48;98115.56;;;14.13;50.11
28267;BME280;15525;45.568;5.448;2023-04-07T08:09:14;98091.13;;;14.09;50.06
28267;BME280;15525;45.568;5.448;2023-04-07T08:11:40;98111.75;;;14.37;49.50
28267;BME280;15525;45.568;5.448;2023-04-07T08:14:06;98115.16;;;14.43;49.54
28267;BME280;15525;45.568;5.448;2023-04-07T08:16:31;98134.59;;;14.58;49.72
28267;BME280;15525;45.568;5.448;2023-04-07T08:18:57;98122.75;;;14.41;50.06
28267;BME280;15525;45.568;5.448;2023-04-07T08:21:22;98136.72;;;14.43;50.14
28267;BME280;15525;45.568;5.448;2023-04-07T08:23:47;98134.66;;;14.35;50.19
28267;BME280;15525;45.568;5.448;2023-04-07T08:26:13;98122.88;;;14.31;50.00
28267;BME280;15525;45.568;5.448;2023-04-07T08:28:38;98131.53;;;14.46;50.13
28267;BME280;15525;45.568;5.448;2023-04-07T08:31:04;98101.56;;;14.34;49.75
28267;BME280;15525;45.568;5.448;2023-04-07T08:33:29;98128.75;;;14.51;49.93
28267;BME280;15525;45.568;5.448;2023-04-07T08:35:55;98135.81;;;14.84;49.75
28267;BME280;15525;45.568;5.448;2023-04-07T08:38:21;98126.00;;;15.07;49.16
28267;BME280;15525;45.568;5.448;2023-04-07T08:40:49;98111.22;;;15.04;49.15
28267;BME280;15525;45.568;5.448;2023-04-07T08:43:18;98135.03;;;15.29;48.52
28267;BME280;15525;45.568;5.448;2023-04-07T08:45:45;98118.25;;;15.32;48.74
28267;BME280;15525;45.568;5.448;2023-04-07T08:48:16;98116.41;;;15.46;48.75
28267;BME280;15525;45.568;5.448;2023-04-07T08:50:45;98146.72;;;15.84;48.80
28267;BME280;15525;45.568;5.448;2023-04-07T08:53:12;98152.81;;;16.03;47.58
28267;BME280;15525;45.568;5.448;2023-04-07T08:55:40;98146.53;;;16.56;47.22
28267;BME280;15525;45.568;5.448;2023-04-07T08:58:08;98132.56;;;17.20;46.62
28267;BME280;15525;45.568;5.448;2023-04-07T09:00:39;98138.34;;;17.88;44.65
28267;BME280;15525;45.568;5.448;2023-04-07T09:03:06;98158.88;;;17.89;45.10
28267;BME280;15525;45.568;5.448;2023-04-07T09:05:33;98148.38;;;17.57;45.53
28267;BME280;15525;45.568;5.448;2023-04-07T09:07:58;98126.25;;;17.33;45.71
28267;BME280;15525;45.568;5.448;2023-04-07T09:10:24;98147.75;;;17.52;45.49
28267;BME280;15525;45.568;5.448;2023-04-07T09:12:49;98144.88;;;17.87;45.18
28267;BME280;15525;45.568;5.448;2023-04-07T09:15:15;98151.06;;;17.88;45.19
28267;BME280;15525;45.568;5.448;2023-04-07T09:17:40;98141.75;;;17.63;44.91
28267;BME280;15525;45.568;5.448;2023-04-07T09:20:06;98133.81;;;18.31;43.42
28267;BME280;15525;45.568;5.448;2023-04-07T09:25:22;98147.84;;;18.25;44.08
28267;BME280;15525;45.568;5.448;2023-04-07T09:28:03;98123.25;;;18.04;44.58
28267;BME280;15525;45.568;5.448;2023-04-07T09:30:31;98144.09;;;18.60;44.04
28267;BME280;15525;45.568;5.448;2023-04-07T09:32:58;98134.88;;;19.66;42.30
28267;BME280;15525;45.568;5.448;2023-04-07T09:35:24;98128.50;;;19.91;41.79
28267;BME280;15525;45.568;5.448;2023-04-07T09:40:27;98122.97;;;18.23;44.01
28267;BME280;15525;45.568;5.448;2023-04-07T09:42:52;98128.09;;;17.77;45.12
28267;BME280;15525;45.568;5.448;2023-04-07T09:45:28;98148.31;;;17.40;44.68
28267;BME280;15525;45.568;5.448;2023-04-07T09:47:54;98142.34;;;18.55;43.31
28267;BME280;15525;45.568;5.448;2023-04-07T09:50:32;98132.91;;;19.21;40.25
28267;BME280;15525;45.568;5.448;2023-04-07T09:52:59;98130.47;;;19.82;40.52
28267;BME280;15525;45.568;5.448;2023-04-07T09:55:27;98124.03;;;19.95;40.16
28267;BME280;15525;45.568;5.448;2023-04-07T09:57:53;98128.13;;;19.72;40.47
28267;BME280;15525;45.568;5.448;2023-04-07T10:00:19;98119.69;;;18.94;41.36
28267;BME280;15525;45.568;5.448;2023-04-07T10:02:45;98110.41;;;19.12;41.01
28267;BME280;15525;45.568;5.448;2023-04-07T10:05:12;98128.47;;;20.08;39.85
28267;BME280;15525;45.568;5.448;2023-04-07T10:07:37;98080.59;;;20.45;38.61
28267;BME280;15525;45.568;5.448;2023-04-07T10:10:03;98112.94;;;20.58;38.25
28267;BME280;15525;45.568;5.448;2023-04-07T10:12:33;98106.59;;;21.40;37.84
28267;BME280;15525;45.568;5.448;2023-04-07T10:14:59;98077.59;;;21.68;36.72
28267;BME280;15525;45.568;5.448;2023-04-07T10:17:27;98077.16;;;22.02;36.39
28267;BME280;15525;45.568;5.448;2023-04-07T10:19:53;98053.75;;;21.89;36.16
28267;BME280;15525;45.568;5.448;2023-04-07T10:22:20;98079.91;;;21.22;36.95
28267;BME280;15525;45.568;5.448;2023-04-07T10:27:30;98084.38;;;22.34;33.53
28267;BME280;15525;45.568;5.448;2023-04-07T10:29:56;98081.19;;;22.56;33.81
28267;BME280;15525;45.568;5.448;2023-04-07T10:32:23;98064.56;;;21.86;33.51
28267;BME280;15525;45.568;5.448;2023-04-07T10:37:22;98067.72;;;21.88;32.77
28267;BME280;15525;45.568;5.448;2023-04-07T10:39:49;98065.22;;;21.83;32.47
28267;BME280;15525;45.568;5.448;2023-04-07T10:45:05;98062.09;;;20.09;34.79
28267;BME280;15525;45.568;5.448;2023-04-07T10:47:32;98055.00;;;20.58;34.11
28267;BME280;15525;45.568;5.448;2023-04-07T10:52:48;98044.38;;;21.18;31.84
28267;BME280;15525;45.568;5.448;2023-04-07T10:55:37;98037.25;;;20.60;31.27
28267;BME280;15525;45.568;5.448;2023-04-07T10:58:22;98047.31;;;20.60;30.79
28267;BME280;15525;45.568;5.448;2023-04-07T11:03:33;98023.41;;;19.83;31.79
28267;BME280;15525;45.568;5.448;2023-04-07T11:06:17;98045.41;;;19.90;31.41
28267;BME280;15525;45.568;5.448;2023-04-07T11:08:43;98040.69;;;19.50;32.90
28267;BME280;15525;45.568;5.448;2023-04-07T11:11:19;98035.72;;;20.10;31.81
28267;BME280;15525;45.568;5.448;2023-04-07T11:13:49;98024.53;;;20.32;31.29
28267;BME280;15525;45.568;5.448;2023-04-07T11:16:16;98003.72;;;20.68;30.63
28267;BME280;15525;45.568;5.448;2023-04-07T11:18:43;98007.19;;;20.57;29.94
28267;BME280;15525;45.568;5.448;2023-04-07T11:21:09;98024.22;;;20.04;31.18
28267;BME280;15525;45.568;5.448;2023-04-07T11:23:39;98022.50;;;20.00;31.09
28267;BME280;15525;45.568;5.448;2023-04-07T11:26:05;98036.84;;;19.80;31.64
28267;BME280;15525;45.568;5.448;2023-04-07T11:28:31;98043.09;;;18.88;32.25
28267;BME280;15525;45.568;5.448;2023-04-07T11:30:57;98036.91;;;18.54;32.60
28267;BME280;15525;45.568;5.448;2023-04-07T11:33:29;98040.13;;;18.47;31.82
28267;BME280;15525;45.568;5.448;2023-04-07T11:35:56;98040.69;;;18.87;32.38
28267;BME280;15525;45.568;5.448;2023-04-07T11:38:25;98047.25;;;19.49;32.20
28267;BME280;15525;45.568;5.448;2023-04-07T11:40:52;98016.84;;;19.09;32.38
28267;BME280;15525;45.568;5.448;2023-04-07T11:43:20;98026.78;;;19.05;33.15
28267;BME280;15525;45.568;5.448;2023-04-07T11:45:46;98017.13;;;19.33;33.46
28267;BME280;15525;45.568;5.448;2023-04-07T11:48:32;98029.94;;;19.24;35.38
28267;BME280;15525;45.568;5.448;2023-04-07T11:50:58;98037.59;;;19.60;34.70
28267;BME280;15525;45.568;5.448;2023-04-07T11:53:30;98049.19;;;19.40;37.27
28267;BME280;15525;45.568;5.448;2023-04-07T11:56:15;98030.13;;;20.06;36.57
28267;BME280;15525;45.568;5.448;2023-04-07T11:58:48;98062.94;;;20.51;35.83
28267;BME280;15525;45.568;5.448;2023-04-07T12:01:14;98046.00;;;20.45;35.72
28267;BME280;15525;45.568;5.448;2023-04-07T12:03:56;98044.50;;;20.15;36.27
28267;BME280;15525;45.568;5.448;2023-04-07T12:06:34;98051.75;;;19.36;37.37
28267;BME280;15525;45.568;5.448;2023-04-07T12:09:03;98057.78;;;18.70;38.56
28267;BME280;15525;45.568;5.448;2023-04-07T12:11:29;98076.91;;;18.23;40.01
28267;BME280;15525;45.568;5.448;2023-04-07T12:13:56;98106.13;;;17.78;41.46
28267;BME280;15525;45.568;5.448;2023-04-07T12:16:22;98098.47;;;16.89;43.96
28267;BME280;15525;45.568;5.448;2023-04-07T12:18:48;98106.66;;;16.40;44.69
28267;BME280;15525;45.568;5.448;2023-04-07T12:21:14;98096.22;;;15.98;45.65
28267;BME280;15525;45.568;5.448;2023-04-07T12:23:39;98112.09;;;16.13;45.62
28267;BME280;15525;45.568;5.448;2023-04-07T12:26:06;98108.72;;;16.78;44.84
28267;BME280;15525;45.568;5.448;2023-04-07T12:28:32;98084.97;;;17.19;44.02
28267;BME280;15525;45.568;5.448;2023-04-07T12:30:57;98098.75;;;17.62;44.02
28267;BME280;15525;45.568;5.448;2023-04-07T12:33:23;98079.28;;;17.51;44.00
28267;BME280;15525;45.568;5.448;2023-04-07T12:35:48;98083.28;;;18.27;43.05
28267;BME280;15525;45.568;5.448;2023-04-07T12:38:14;98087.31;;;18.89;42.23
28267;BME280;15525;45.568;5.448;2023-04-07T12:40:40;98099.38;;;19.71;41.36
28267;BME280;15525;45.568;5.448;2023-04-07T12:43:06;98101.34;;;19.91;40.25
28267;BME280;15525;45.568;5.448;2023-04-07T12:45:31;98091.91;;;20.67;39.50
28267;BME280;15525;45.568;5.448;2023-04-07T12:47:57;98079.84;;;21.10;39.59
28267;BME280;15525;45.568;5.448;2023-04-07T12:50:23;98072.44;;;20.77;40.27
28267;BME280;15525;45.568;5.448;2023-04-07T12:52:52;98071.56;;;21.06;39.77
28267;BME280;15525;45.568;5.448;2023-04-07T12:55:18;98069.38;;;21.44;38.62
28267;BME280;15525;45.568;5.448;2023-04-07T12:57:44;98074.19;;;21.15;37.89
28267;BME280;15525;45.568;5.448;2023-04-07T13:00:09;98083.34;;;20.77;38.18
28267;BME280;15525;45.568;5.448;2023-04-07T13:02:35;98056.88;;;20.25;37.61
28267;BME280;15525;45.568;5.448;2023-04-07T13:05:02;98073.63;;;20.06;38.10
28267;BME280;15525;45.568;5.448;2023-04-07T13:07:27;98049.38;;;19.93;37.42
28267;BME280;15525;45.568;5.448;2023-04-07T13:09:53;98062.59;;;19.74;37.65
28267;BME280;15525;45.568;5.448;2023-04-07T13:12:19;98057.59;;;20.54;36.92
28267;BME280;15525;45.568;5.448;2023-04-07T13:14:44;98054.41;;;21.38;35.53
28267;BME280;15525;45.568;5.448;2023-04-07T13:17:10;98045.09;;;20.95;35.45
28267;BME280;15525;45.568;5.448;2023-04-07T13:19:35;98060.41;;;20.25;36.11
28267;BME280;15525;45.568;5.448;2023-04-07T13:22:01;98048.28;;;20.97;35.47
28267;BME280;15525;45.568;5.448;2023-04-07T13:24:27;98046.63;;;21.16;34.68
28267;BME280;15525;45.568;5.448;2023-04-07T13:26:52;98029.31;;;21.45;34.00